createdAt,value
2018-09-12T00:01:49.152Z,7.57
2018-09-12T00:04:17.997Z,7.70
2018-09-12T00:06:47.016Z,7.70
2018-09-12T00:09:15.822Z,7.97
2018-09-12T00:11:44.640Z,6.90
2018-09-12T00:14:13.638Z,7.60
2018-09-12T00:16:42.513Z,7.47
2018-09-12T00:19:11.398Z,7.00
2018-09-12T00:21:40.346Z,7.53
2018-09-12T00:24:09.211Z,6.97
2018-09-12T00:26:37.924Z,8.20
2018-09-12T00:29:07.106Z,7.70
2018-09-12T00:31:35.965Z,7.23
2018-09-12T00:34:04.620Z,7.77
2018-09-12T00:36:33.616Z,8.30
2018-09-12T00:39:02.646Z,7.50
2018-09-12T00:41:31.537Z,8.00
2018-09-12T00:44:00.228Z,8.80
2018-09-12T00:46:29.211Z,7.97
2018-09-12T00:48:58.521Z,7.83
2018-09-12T00:51:27.296Z,8.00
2018-09-12T00:53:56.296Z,8.33
2018-09-12T00:56:25.433Z,7.93
2018-09-12T00:58:54.691Z,7.87
2018-09-12T01:01:23.577Z,7.73
2018-09-12T01:03:52.342Z,8.60
2018-09-12T01:06:21.705Z,8.07
2018-09-12T01:08:53.318Z,8.60
2018-09-12T01:11:23.984Z,7.60
2018-09-12T01:13:53.902Z,7.97
2018-09-12T01:16:23.224Z,8.13
2018-09-12T01:18:52.131Z,7.87
2018-09-12T01:21:21.067Z,8.07
2018-09-12T01:23:49.880Z,7.47
2018-09-12T01:26:18.803Z,8.03
2018-09-12T01:28:47.857Z,8.27
2018-09-12T01:31:16.808Z,8.07
2018-09-12T01:33:45.663Z,7.40
2018-09-12T01:36:14.296Z,7.73
2018-09-12T01:38:43.195Z,8.03
2018-09-12T01:41:13.053Z,7.30
2018-09-12T01:43:41.959Z,8.07
2018-09-12T01:46:10.862Z,7.53
2018-09-12T01:48:39.463Z,8.13
2018-09-12T01:51:08.682Z,7.67
2018-09-12T01:53:37.544Z,7.30
2018-09-12T01:56:06.446Z,8.13
2018-09-12T01:58:35.674Z,7.93
2018-09-12T02:01:04.649Z,7.80
2018-09-12T02:03:33.720Z,7.77
2018-09-12T02:06:02.641Z,8.00
2018-09-12T02:08:31.526Z,8.10
2018-09-12T02:11:01.373Z,8.60
2018-09-12T02:13:30.967Z,8.23
2018-09-12T02:16:00.313Z,8.30
2018-09-12T02:18:29.318Z,8.20
2018-09-12T02:20:58.215Z,7.77
2018-09-12T02:23:27.228Z,8.13
2018-09-12T02:25:56.305Z,8.20
2018-09-12T02:28:25.194Z,8.33
2018-09-12T02:30:54.825Z,7.73
2018-09-12T02:33:23.798Z,8.13
2018-09-12T02:35:57.790Z,8.63
2018-09-12T02:38:26.582Z,7.50
2018-09-12T02:40:55.522Z,7.30
2018-09-12T02:43:24.564Z,7.87
2018-09-12T02:45:53.628Z,7.00
2018-09-12T02:48:22.664Z,7.50
2018-09-12T02:50:51.515Z,8.43
2018-09-12T02:53:20.363Z,9.27
2018-09-12T02:55:49.350Z,7.43
2018-09-12T02:58:18.359Z,7.73
2018-09-12T03:00:47.434Z,7.93
2018-09-12T03:03:16.849Z,7.27
2018-09-12T03:05:45.658Z,8.57
2018-09-12T03:08:14.574Z,7.77
2018-09-12T03:13:09.699Z,7.97
2018-09-12T03:15:38.609Z,8.33
2018-09-12T03:18:07.652Z,7.93
2018-09-12T03:20:38.305Z,9.00
2018-09-12T03:23:07.062Z,7.53
2018-09-12T03:25:36.492Z,8.60
2018-09-12T03:28:05.712Z,8.70
2018-09-12T03:30:34.870Z,8.07
2018-09-12T03:33:03.680Z,7.73
2018-09-12T03:35:32.611Z,7.60
2018-09-12T03:38:01.395Z,7.90
2018-09-12T03:40:30.366Z,8.00
2018-09-12T03:42:59.717Z,7.90
2018-09-12T03:45:28.661Z,8.17
2018-09-12T03:47:58.007Z,8.90
2018-09-12T03:50:26.879Z,8.60
2018-09-12T03:52:56.018Z,7.90
2018-09-12T03:55:25.616Z,8.60
2018-09-12T03:57:54.776Z,8.30
2018-09-12T04:00:23.923Z,8.87
2018-09-12T04:02:53.072Z,9.33
2018-09-12T04:05:21.973Z,8.83
2018-09-12T04:07:50.968Z,9.10
2018-09-12T04:10:19.931Z,8.37
2018-09-12T04:12:49.479Z,11.57
2018-09-12T04:15:18.651Z,10.50
2018-09-12T04:17:47.561Z,10.50
2018-09-12T04:20:16.375Z,10.70
2018-09-12T04:22:45.355Z,9.20
2018-09-12T04:25:15.025Z,9.30
2018-09-12T04:27:43.978Z,9.70
2018-09-12T04:30:13.135Z,9.33
2018-09-12T04:32:42.100Z,9.80
2018-09-12T04:35:11.010Z,10.07
2018-09-12T04:37:40.043Z,9.27
2018-09-12T04:40:09.207Z,9.60
2018-09-12T04:42:37.867Z,8.80
2018-09-12T04:45:07.113Z,10.03
2018-09-12T04:47:36.037Z,8.97
2018-09-12T04:50:05.112Z,9.83
2018-09-12T04:52:34.121Z,9.77
2018-09-12T04:55:02.897Z,9.80
2018-09-12T04:57:31.977Z,9.20
2018-09-12T05:00:01.189Z,8.90
2018-09-12T05:02:30.126Z,10.70
2018-09-12T05:04:59.571Z,9.90
2018-09-12T05:07:28.260Z,11.10
2018-09-12T05:09:57.489Z,10.80
2018-09-12T05:12:26.412Z,10.87
2018-09-12T05:14:55.287Z,12.70
2018-09-12T05:17:24.102Z,11.77
2018-09-12T05:19:53.204Z,9.63
2018-09-12T05:22:22.768Z,10.80
2018-09-12T05:24:51.763Z,9.77
2018-09-12T05:27:20.668Z,9.80
2018-09-12T05:29:49.676Z,9.73
2018-09-12T05:32:18.798Z,11.23
2018-09-12T05:34:47.731Z,27.03
2018-09-12T05:37:16.418Z,7.60
2018-09-12T05:39:45.360Z,9.70
2018-09-12T05:42:14.397Z,9.73
2018-09-12T05:44:43.345Z,9.90
2018-09-12T05:47:12.184Z,9.80
2018-09-12T05:49:41.389Z,7.30
2018-09-12T05:52:10.514Z,6.13
2018-09-12T05:54:39.383Z,5.80
2018-09-12T05:57:08.458Z,6.40
2018-09-12T05:59:37.579Z,6.87
2018-09-12T06:02:07.173Z,7.37
2018-09-12T06:04:36.011Z,8.00
2018-09-12T06:07:05.175Z,9.23
2018-09-12T06:09:34.209Z,9.03
2018-09-12T06:12:03.088Z,8.90
2018-09-12T06:14:31.929Z,8.30
2018-09-12T06:17:00.848Z,9.37
2018-09-12T06:19:29.590Z,9.17
2018-09-12T06:21:58.621Z,8.37
2018-09-12T06:24:27.598Z,9.37
2018-09-12T06:26:56.418Z,8.83
2018-09-12T06:29:25.393Z,14.10
2018-09-12T06:31:54.287Z,11.60
2018-09-12T06:34:23.082Z,8.43
2018-09-12T06:36:51.918Z,9.13
2018-09-12T06:39:20.986Z,8.83
2018-09-12T06:41:49.782Z,8.73
2018-09-12T06:44:18.569Z,9.10
2018-09-12T06:46:47.485Z,8.43
2018-09-12T06:49:16.472Z,9.03
2018-09-12T06:51:46.003Z,7.97
2018-09-12T06:54:15.108Z,9.40
2018-09-12T06:56:44.123Z,9.20
2018-09-12T06:59:14.970Z,9.27
2018-09-12T07:01:44.154Z,7.67
2018-09-12T07:04:12.967Z,8.57
2018-09-12T07:06:42.569Z,8.30
2018-09-12T07:09:12.178Z,7.43
2018-09-12T07:11:41.187Z,7.97
2018-09-12T07:14:10.215Z,8.40
2018-09-12T07:16:39.296Z,7.60
2018-09-12T07:19:08.250Z,6.80
2018-09-12T07:21:37.221Z,7.30
2018-09-12T07:24:06.076Z,7.97
2018-09-12T07:26:35.109Z,9.17
2018-09-12T07:29:04.792Z,8.00
2018-09-12T07:31:33.856Z,7.80
2018-09-12T07:34:02.755Z,7.70
2018-09-12T07:36:32.139Z,7.10
2018-09-12T07:39:01.007Z,8.20
2018-09-12T07:41:30.114Z,7.13
2018-09-12T07:43:59.151Z,7.60
2018-09-12T07:46:27.996Z,6.50
2018-09-12T07:48:56.720Z,6.70
2018-09-12T07:51:26.203Z,7.20
2018-09-12T07:53:55.920Z,7.20
2018-09-12T07:56:24.732Z,7.10
2018-09-12T07:58:53.648Z,6.60
2018-09-12T08:01:22.612Z,7.10
2018-09-12T08:03:51.563Z,7.10
2018-09-12T08:06:20.735Z,6.80
2018-09-12T08:08:49.561Z,6.40
2018-09-12T08:11:18.460Z,6.57
2018-09-12T08:13:47.861Z,7.10
2018-09-12T08:16:16.553Z,7.70
2018-09-12T08:18:45.392Z,7.63
2018-09-12T08:21:14.247Z,8.87
2018-09-12T08:23:43.015Z,11.70
2018-09-12T08:26:12.040Z,6.87
2018-09-12T08:28:40.744Z,6.60
2018-09-12T08:31:10.171Z,5.83
2018-09-12T08:33:38.958Z,9.40
2018-09-12T08:36:07.799Z,6.60
2018-09-12T08:38:36.714Z,8.90
2018-09-12T08:41:05.837Z,6.10
2018-09-12T08:43:34.580Z,6.83
2018-09-12T08:46:03.289Z,5.87
2018-09-12T08:48:32.098Z,6.70
2018-09-12T08:51:00.886Z,7.23
2018-09-12T08:53:29.884Z,6.23
2018-09-12T08:55:58.870Z,6.80
2018-09-12T08:58:27.647Z,8.60
2018-09-12T09:00:56.684Z,7.37
2018-09-12T09:03:25.646Z,7.33
2018-09-12T09:05:55.393Z,7.20
2018-09-12T09:08:24.554Z,6.50
2018-09-12T09:10:53.631Z,7.47
2018-09-12T09:13:22.466Z,6.80
2018-09-12T09:15:51.520Z,7.40
2018-09-12T09:18:20.656Z,6.30
2018-09-12T09:20:49.556Z,6.03
2018-09-12T09:23:18.506Z,8.47
2018-09-12T09:25:47.516Z,8.40
2018-09-12T09:28:16.291Z,7.00
2018-09-12T09:30:45.354Z,6.07
2018-09-12T09:33:14.286Z,5.63
2018-09-12T09:35:43.371Z,5.67
2018-09-12T09:38:12.222Z,5.50
2018-09-12T09:40:42.047Z,5.00
2018-09-12T09:43:10.926Z,6.13
2018-09-12T09:45:39.824Z,5.80
2018-09-12T09:48:08.780Z,5.87
2018-09-12T09:50:37.671Z,5.13
2018-09-12T09:53:06.292Z,4.63
2018-09-12T09:55:35.017Z,5.63
2018-09-12T09:58:03.997Z,5.67
2018-09-12T10:00:37.979Z,5.80
2018-09-12T10:03:13.155Z,4.77
2018-09-12T10:05:47.183Z,4.47
2018-09-12T10:08:21.177Z,4.30
2018-09-12T10:10:50.203Z,5.43
2018-09-12T10:13:18.890Z,4.10
2018-09-12T10:15:47.707Z,3.70
2018-09-12T10:18:16.454Z,4.13
2018-09-12T10:20:45.256Z,4.20
2018-09-12T10:23:14.182Z,4.70
2018-09-12T10:25:42.971Z,4.57
2018-09-12T10:28:11.810Z,4.73
2018-09-12T10:30:40.723Z,4.23
2018-09-12T10:33:09.648Z,4.67
2018-09-12T10:35:38.313Z,5.10
2018-09-12T10:38:07.061Z,5.00
2018-09-12T10:40:35.952Z,4.57
2018-09-12T10:43:04.888Z,4.90
2018-09-12T10:45:34.275Z,4.20
2018-09-12T10:48:03.295Z,4.30
2018-09-12T10:50:32.073Z,5.40
2018-09-12T10:53:01.406Z,4.43
2018-09-12T10:55:30.274Z,4.80
2018-09-12T10:57:59.356Z,4.30
2018-09-12T11:00:28.473Z,4.77
2018-09-12T11:02:57.284Z,4.80
2018-09-12T11:05:26.232Z,4.83
2018-09-12T11:07:55.148Z,4.60
2018-09-12T11:10:24.122Z,5.67
2018-09-12T11:12:52.863Z,5.67
2018-09-12T11:15:22.467Z,4.90
2018-09-12T11:17:51.390Z,5.70
2018-09-12T11:20:20.591Z,5.23
2018-09-12T11:22:50.103Z,6.23
2018-09-12T11:25:19.090Z,5.33
2018-09-12T11:27:48.281Z,5.20
2018-09-12T11:30:18.547Z,6.17
2018-09-12T11:32:47.774Z,5.10
2018-09-12T11:35:17.141Z,5.00
2018-09-12T11:37:45.963Z,5.13
2018-09-12T11:40:14.861Z,5.57
2018-09-12T11:42:43.650Z,5.00
2018-09-12T11:45:12.633Z,5.87
2018-09-12T11:47:41.443Z,5.10
2018-09-12T11:50:10.145Z,5.40
2018-09-12T11:52:38.986Z,7.77
2018-09-12T11:55:08.660Z,4.93
2018-09-12T11:57:38.128Z,6.90
2018-09-12T12:00:07.799Z,4.97
2018-09-12T12:02:42.608Z,5.37
2018-09-12T12:05:11.533Z,4.40
2018-09-12T12:07:42.029Z,4.57
2018-09-12T12:10:10.929Z,4.60
2018-09-12T12:12:40.020Z,4.00
2018-09-12T12:15:09.191Z,4.00
2018-09-12T12:17:38.653Z,3.77
2018-09-12T12:20:07.880Z,4.10
2018-09-12T12:22:36.681Z,4.30
2018-09-12T12:25:06.168Z,4.00
2018-09-12T12:27:35.293Z,4.30
2018-09-12T12:30:04.281Z,4.17
2018-09-12T12:32:33.122Z,3.80
2018-09-12T12:35:02.076Z,3.90
2018-09-12T12:37:30.878Z,4.07
2018-09-12T12:39:59.597Z,3.40
2018-09-12T12:42:28.301Z,2.90
2018-09-12T12:44:57.185Z,3.57
2018-09-12T12:47:25.885Z,3.20
2018-09-12T12:49:54.997Z,2.97
2018-09-12T12:52:24.039Z,3.50
2018-09-12T12:54:52.937Z,3.20
2018-09-12T12:57:21.941Z,2.90
2018-09-12T12:59:50.773Z,2.87
2018-09-12T13:02:19.723Z,2.73
2018-09-12T13:04:48.506Z,2.90
2018-09-12T13:07:17.907Z,2.83
2018-09-12T13:09:46.631Z,2.93
2018-09-12T13:12:15.811Z,3.63
2018-09-12T13:14:44.753Z,3.30
2018-09-12T13:17:13.470Z,3.23
2018-09-12T13:19:42.242Z,2.50
2018-09-12T13:22:11.063Z,2.93
2018-09-12T13:24:39.960Z,2.57
2018-09-12T13:27:08.765Z,3.10
2018-09-12T13:29:37.831Z,2.53
2018-09-12T13:32:06.612Z,2.87
2018-09-12T13:34:35.946Z,2.50
2018-09-12T13:37:05.415Z,3.10
2018-09-12T13:39:34.350Z,3.20
2018-09-12T13:42:03.323Z,2.93
2018-09-12T13:44:32.323Z,2.73
2018-09-12T13:47:01.513Z,3.57
2018-09-12T13:49:30.237Z,2.33
2018-09-12T13:51:59.321Z,2.70
2018-09-12T13:54:28.161Z,3.00
2018-09-12T13:56:57.095Z,3.33
2018-09-12T13:59:25.881Z,3.07
2018-09-12T14:05:00.255Z,2.60
2018-09-12T14:07:29.070Z,2.87
2018-09-12T14:09:57.892Z,3.30
2018-09-12T14:12:26.661Z,3.07
2018-09-12T14:14:55.755Z,3.20
2018-09-12T14:17:24.714Z,3.20
2018-09-12T14:19:53.711Z,3.10
2018-09-12T14:22:22.670Z,2.43
2018-09-12T14:24:51.543Z,2.77
2018-09-12T14:27:20.545Z,2.87
2018-09-12T14:29:49.319Z,3.13
2018-09-12T14:32:18.651Z,2.73
2018-09-12T14:34:47.536Z,2.97
2018-09-12T14:37:16.429Z,3.30
2018-09-12T14:39:45.377Z,3.03
2018-09-12T14:42:14.245Z,2.70
2018-09-12T14:44:42.920Z,2.60
2018-09-12T14:47:11.760Z,2.80
2018-09-12T14:49:41.057Z,2.63
2018-09-12T14:52:09.928Z,3.20
2018-09-12T14:54:38.958Z,3.10
2018-09-12T14:57:07.811Z,3.10
2018-09-12T14:59:36.904Z,2.80
2018-09-12T15:02:06.048Z,2.80
2018-09-12T15:04:35.009Z,3.20
2018-09-12T15:07:03.819Z,3.67
2018-09-12T15:09:32.643Z,3.73
2018-09-12T15:12:01.427Z,3.77
2018-09-12T15:14:30.466Z,4.00
2018-09-12T15:16:59.391Z,3.60
2018-09-12T15:19:28.472Z,4.50
2018-09-12T15:21:57.246Z,3.63
2018-09-12T15:24:26.244Z,3.97
2018-09-12T15:26:55.463Z,3.73
2018-09-12T15:29:24.307Z,3.90
2018-09-12T15:31:53.012Z,4.13
2018-09-12T15:34:21.818Z,4.27
2018-09-12T15:36:50.914Z,4.07
2018-09-12T15:39:19.966Z,4.50
2018-09-12T15:41:48.663Z,4.10
2018-09-12T15:44:17.442Z,4.63
2018-09-12T15:46:46.475Z,3.87
2018-09-12T15:49:16.126Z,4.00
2018-09-12T15:51:45.558Z,3.90
2018-09-12T15:54:14.173Z,4.40
2018-09-12T15:56:43.317Z,4.17
2018-09-12T15:59:12.595Z,4.37
2018-09-12T16:01:42.331Z,3.90
2018-09-12T16:04:11.322Z,4.93
2018-09-12T16:06:40.331Z,4.23
2018-09-12T16:09:10.179Z,5.50
2018-09-12T16:11:38.760Z,4.00
2018-09-12T16:14:07.576Z,4.33
2018-09-12T16:16:36.420Z,4.40
2018-09-12T16:19:06.010Z,3.50
2018-09-12T16:21:34.912Z,4.33
2018-09-12T16:24:03.785Z,4.03
2018-09-12T16:26:32.503Z,3.80
2018-09-12T16:29:01.441Z,4.30
2018-09-12T16:31:30.947Z,5.10
2018-09-12T16:33:59.876Z,5.00
2018-09-12T16:36:29.206Z,4.60
2018-09-12T16:38:58.090Z,5.10
2018-09-12T16:41:26.984Z,5.30
2018-09-12T16:43:55.868Z,5.00
2018-09-12T16:46:24.909Z,5.20
2018-09-12T16:48:54.178Z,4.40
2018-09-12T16:51:23.189Z,4.47
2018-09-12T16:53:51.928Z,5.13
2018-09-12T16:56:20.800Z,5.37
2018-09-12T16:58:49.782Z,5.90
2018-09-12T17:01:18.606Z,5.43
2018-09-12T17:03:47.914Z,5.33
2018-09-12T17:06:17.029Z,6.20
2018-09-12T17:08:46.171Z,5.47
2018-09-12T17:14:05.931Z,5.47
2018-09-12T17:16:34.769Z,6.10
2018-09-12T17:19:03.951Z,5.80
2018-09-12T17:21:33.037Z,5.70
2018-09-12T17:24:02.445Z,5.20
2018-09-12T17:26:31.293Z,5.60
2018-09-12T17:29:00.391Z,6.37
2018-09-12T17:34:22.516Z,5.60
2018-09-12T17:39:44.384Z,5.10
2018-09-12T17:42:13.082Z,5.77
2018-09-12T17:44:41.839Z,5.70
2018-09-12T17:47:10.911Z,6.70
2018-09-12T17:49:39.912Z,6.00
2018-09-12T17:57:54.329Z,6.70
2018-09-12T18:00:23.370Z,6.47
2018-09-12T18:02:52.325Z,6.53
2018-09-12T18:05:21.224Z,5.90
2018-09-12T18:07:50.324Z,6.40
2018-09-12T18:10:19.294Z,7.57
2018-09-12T18:16:05.512Z,5.73
2018-09-12T18:18:34.267Z,5.50
2018-09-12T18:21:03.316Z,6.60
2018-09-12T18:23:32.956Z,6.10
2018-09-12T18:26:01.771Z,5.23
2018-09-12T18:28:30.843Z,7.07
2018-09-12T18:31:00.311Z,8.17
2018-09-12T18:33:29.121Z,6.70
2018-09-12T18:41:42.054Z,6.57
2018-09-12T18:47:01.964Z,6.20
2018-09-12T18:52:22.064Z,7.03
2018-09-12T18:54:51.362Z,6.70
2018-09-12T18:57:20.158Z,7.10
2018-09-12T18:59:48.933Z,6.67
2018-09-12T19:02:18.007Z,6.47
2018-09-12T19:07:37.669Z,6.30
2018-09-12T19:10:06.443Z,8.17
2018-09-12T19:12:35.555Z,6.97
2018-09-12T19:15:04.563Z,7.10
2018-09-12T19:17:33.472Z,6.73
2018-09-12T19:22:53.019Z,7.13
2018-09-12T19:25:22.571Z,7.10
2018-09-12T19:27:51.924Z,7.33
2018-09-12T19:30:21.223Z,9.10
2018-09-12T19:32:50.683Z,7.67
2018-09-12T19:35:19.686Z,7.20
2018-09-12T19:37:49.594Z,7.40
2018-09-12T19:40:18.702Z,8.33
2018-09-12T19:42:47.547Z,6.93
2018-09-12T19:45:16.752Z,7.43
2018-09-12T19:47:45.755Z,7.07
2018-09-12T19:50:15.564Z,7.20
2018-09-12T19:52:44.669Z,7.57
2018-09-12T19:55:13.541Z,7.60
2018-09-12T19:57:42.650Z,7.33
2018-09-12T20:00:16.249Z,7.70
2018-09-12T20:02:45.995Z,6.67
2018-09-12T20:05:15.437Z,6.70
2018-09-12T20:10:47.733Z,6.33
2018-09-12T20:13:18.125Z,8.00
2018-09-12T20:15:47.180Z,30.13
2018-09-12T20:18:16.218Z,12.50
2018-09-12T20:20:45.338Z,9.93
2018-09-12T20:23:14.331Z,12.40
2018-09-12T20:25:43.625Z,12.83
2018-09-12T20:28:15.619Z,9.87
2018-09-12T20:30:44.796Z,9.10
2018-09-12T20:33:13.652Z,7.67
2018-09-12T20:35:43.021Z,7.63
2018-09-12T20:38:11.974Z,8.87
2018-09-12T20:40:40.968Z,8.57
2018-09-12T20:43:09.969Z,8.00
2018-09-12T20:45:39.253Z,9.10
2018-09-12T20:48:08.258Z,8.50
2018-09-12T20:50:37.368Z,8.20
2018-09-12T20:53:06.425Z,7.43
2018-09-12T20:55:35.589Z,7.20
2018-09-12T20:58:06.639Z,8.27
2018-09-12T21:00:35.652Z,7.90
2018-09-12T21:03:04.818Z,9.27
2018-09-12T21:05:33.891Z,9.07
2018-09-12T21:08:03.703Z,10.33
2018-09-12T21:10:34.351Z,7.87
2018-09-12T21:13:03.605Z,8.97
2018-09-12T21:15:32.780Z,7.60
2018-09-12T21:18:03.021Z,7.83
2018-09-12T21:20:32.633Z,6.10
2018-09-12T21:23:04.432Z,7.80
2018-09-12T21:25:33.631Z,8.57
2018-09-12T21:28:02.812Z,7.60
2018-09-12T21:30:31.809Z,7.13
2018-09-12T21:33:01.381Z,6.70
2018-09-12T21:35:30.504Z,11.50
2018-09-12T21:37:59.504Z,9.43
2018-09-12T21:40:28.608Z,7.17
2018-09-12T21:42:57.798Z,8.17
2018-09-12T21:45:26.714Z,9.50
2018-09-12T21:47:55.740Z,8.43
2018-09-12T21:50:24.829Z,6.73
2018-09-12T21:52:53.776Z,8.20
2018-09-12T21:55:22.843Z,7.83
2018-09-12T21:57:51.959Z,7.60
2018-09-12T22:00:20.781Z,8.40
2018-09-12T22:02:50.259Z,8.20
2018-09-12T22:05:19.821Z,8.73
2018-09-12T22:07:48.817Z,8.60
2018-09-12T22:10:17.940Z,10.20
2018-09-12T22:12:46.868Z,8.00
2018-09-12T22:15:16.148Z,10.77
2018-09-12T22:17:45.164Z,9.73
2018-09-12T22:20:14.453Z,9.90
2018-09-12T22:22:43.467Z,11.07
2018-09-12T22:25:12.565Z,10.93
2018-09-12T22:27:41.282Z,10.03
2018-09-12T22:30:10.592Z,12.80
2018-09-12T22:32:40.265Z,13.37
2018-09-12T22:35:09.746Z,12.70
2018-09-12T22:37:38.900Z,14.10
2018-09-12T22:40:08.102Z,14.23
2018-09-12T22:42:37.215Z,12.97
2018-09-12T22:45:06.094Z,11.80
2018-09-12T22:47:34.947Z,12.47
2018-09-12T22:50:03.866Z,11.13
2018-09-12T22:52:32.606Z,11.90
2018-09-12T22:55:04.898Z,11.80
2018-09-12T22:57:36.685Z,12.30
2018-09-12T23:00:06.534Z,13.03
2018-09-12T23:02:35.503Z,12.53
2018-09-12T23:05:04.603Z,11.43
2018-09-12T23:07:33.462Z,11.87
2018-09-12T23:10:02.550Z,11.60
2018-09-12T23:12:31.267Z,10.43
2018-09-12T23:15:00.209Z,9.10
2018-09-12T23:17:29.451Z,11.40
2018-09-12T23:19:58.328Z,11.00
2018-09-12T23:22:27.266Z,10.80
2018-09-12T23:24:56.447Z,11.33
2018-09-12T23:27:25.314Z,10.73
2018-09-12T23:29:54.522Z,11.33
2018-09-12T23:32:23.617Z,12.97
2018-09-12T23:34:52.493Z,11.80
2018-09-12T23:37:21.615Z,11.67
2018-09-12T23:39:50.603Z,12.67
2018-09-12T23:42:19.790Z,13.93
2018-09-12T23:44:48.705Z,13.93
2018-09-12T23:47:17.804Z,13.17
2018-09-12T23:49:53.146Z,13.30
2018-09-12T23:52:22.587Z,9.90
2018-09-12T23:54:51.713Z,13.67
2018-09-12T23:57:20.735Z,14.27
2018-09-12T23:59:49.679Z,13.53
